Time;durP1;ratioP1;P1;durP2;ratioP2;P2;SDS_P1;SDS_P2;PMS_P1;PMS_P2;Temp;Humidity;BMP_temperature;BMP_pressure;BME280_temperature;BME280_humidity;BME280_pressure;Samples;Min_cycle;Max_cycle;Signal;HPM_P1;HPM_P2
2022/01/28 00:00:06;;;;;;;11.25;1.38;;;;;;;3.53;100.00;102897.31;5022220;28;20048;-75
2022/01/28 00:04:59;;;;;;;13.20;1.90;;;;;;;3.44;100.00;102901.84;5035772;28;20032;-74
2022/01/28 00:07:25;;;;;;;8.82;1.52;;;;;;;3.39;100.00;102902.81;5011229;28;20422;-74
2022/01/28 00:09:50;;;;;;;11.38;2.00;;;;;;;3.41;100.00;102899.25;5019894;28;20033;-74
2022/01/28 00:12:15;;;;;;;11.00;2.10;;;;;;;3.39;100.00;102906.38;5041174;28;20033;-75
2022/01/28 00:15:21;;;;;;;12.93;2.63;;;;;;;3.39;100.00;102897.50;5007670;28;20326;-74
2022/01/28 00:38:56;;;;;;;12.43;2.05;;;;;;;3.29;100.00;102912.69;5022703;28;20045;-74
2022/01/28 00:41:21;;;;;;;10.27;1.63;;;;;;;3.26;100.00;102907.41;5020519;28;20056;-74
2022/01/28 00:43:47;;;;;;;8.73;1.50;;;;;;;3.28;100.00;102918.91;5024573;28;20136;-75
2022/01/28 00:46:12;;;;;;;9.70;2.42;;;;;;;3.15;100.00;102903.16;5016992;28;20053;-75
2022/01/28 00:48:37;;;;;;;11.50;1.83;;;;;;;3.19;100.00;102919.91;5008163;28;20467;-75
2022/01/28 00:51:03;;;;;;;7.55;1.42;;;;;;;3.10;100.00;102902.34;5022182;28;20033;-75
2022/01/28 00:53:28;;;;;;;13.60;2.53;;;;;;;3.13;100.00;102912.91;5005172;28;20044;-74
2022/01/28 00:55:54;;;;;;;9.55;1.85;;;;;;;3.18;100.00;102914.63;5037364;28;20529;-75
2022/01/28 00:58:20;;;;;;;11.27;1.90;;;;;;;3.10;100.00;102910.28;5022542;28;20139;-75
2022/01/28 01:00:46;;;;;;;7.07;1.88;;;;;;;3.22;100.00;102917.22;5004499;28;20041;-75
2022/01/28 01:03:11;;;;;;;5.72;1.60;;;;;;;3.12;100.00;102907.59;5005530;28;20805;-74
2022/01/28 01:05:36;;;;;;;13.30;1.85;;;;;;;3.23;100.00;102924.28;5002445;28;20101;-74
2022/01/28 01:08:03;;;;;;;18.92;2.58;;;;;;;3.27;100.00;102928.66;5022603;28;20425;-75
2022/01/28 01:10:29;;;;;;;11.18;2.13;;;;;;;3.15;100.00;102913.78;5034989;28;20118;-74
2022/01/28 01:12:54;;;;;;;8.20;2.53;;;;;;;3.20;100.00;102932.28;5020691;28;20486;-75
2022/01/28 01:15:23;;;;;;;14.02;2.17;;;;;;;3.20;100.00;102932.28;5021920;28;20412;-74
2022/01/28 01:23:10;;;;;;;6.78;1.42;;;;;;;3.24;100.00;102938.41;5020252;28;20033;-74
2022/01/28 01:25:44;;;;;;;9.85;1.65;;;;;;;3.36;100.00;102955.97;5010591;28;20013;-75
2022/01/28 01:28:11;;;;;;;16.65;2.40;;;;;;;3.22;100.00;102948.19;5004257;28;21260;-75
2022/01/28 01:30:40;;;;;;;8.68;1.48;;;;;;;3.19;100.00;102945.56;5025382;28;20061;-76
2022/01/28 01:33:06;;;;;;;16.38;2.15;;;;;;;3.22;100.00;102946.41;5002678;28;20474;-75
2022/01/28 01:35:32;;;;;;;15.05;2.05;;;;;;;3.28;100.00;102964.03;5006474;28;20169;-75
2022/01/28 01:37:58;;;;;;;14.43;2.45;;;;;;;3.27;100.00;102955.22;5022341;28;20067;-74
2022/01/28 01:40:29;;;;;;;10.13;1.42;;;;;;;3.32;100.00;102968.41;5000285;28;20574;-75
2022/01/28 01:43:07;;;;;;;19.63;2.55;;;;;;;3.42;100.00;102977.13;5024127;28;20408;-72
2022/01/28 01:53:26;;;;;;;20.45;2.20;;;;;;;3.40;100.00;102986.91;5021101;28;20290;-75
2022/01/28 01:55:51;;;;;;;11.60;1.38;;;;;;;3.32;100.00;102991.41;5019907;28;20034;-75
2022/01/28 01:58:24;;;;;;;10.80;1.92;;;;;;;3.34;100.00;103002.91;5007269;28;20037;-73
2022/01/28 02:00:49;;;;;;;16.42;2.30;;;;;;;3.42;100.00;103003.69;5002755;28;20516;-74
2022/01/28 02:03:14;;;;;;;13.45;2.22;;;;;;;3.39;100.00;102998.41;5018736;28;20033;-74
2022/01/28 02:05:40;;;;;;;14.30;2.03;;;;;;;3.42;100.00;103006.34;5002025;28;20079;-75
2022/01/28 02:08:06;;;;;;;10.68;2.05;;;;;;;3.44;100.00;103001.91;5006955;28;20087;-74
2022/01/28 02:10:33;;;;;;;14.98;2.17;;;;;;;3.33;100.00;103015.31;5021039;28;20048;-74
2022/01/28 02:12:58;;;;;;;13.57;2.50;;;;;;;3.36;100.00;103014.38;5002671;28;20478;-75
2022/01/28 02:15:24;;;;;;;11.30;1.77;;;;;;;3.30;100.00;103024.22;5001828;28;20117;-74
2022/01/28 02:17:49;;;;;;;12.88;2.10;;;;;;;3.32;100.00;103017.97;5001437;28;20082;-73
2022/01/28 02:20:30;;;;;;;13.75;1.90;;;;;;;3.37;100.00;103022.34;5035817;28;20040;-75
2022/01/28 02:22:56;;;;;;;17.65;2.45;;;;;;;3.35;100.00;103031.22;5018114;28;20033;-75
2022/01/28 02:25:23;;;;;;;11.63;1.70;;;;;;;3.37;100.00;103035.63;5021005;28;20022;-75
2022/01/28 02:27:48;;;;;;;11.73;1.58;;;;;;;3.19;100.00;103010.16;5017442;28;20112;-75
2022/01/28 02:30:14;;;;;;;12.00;1.88;;;;;;;3.22;100.00;103012.78;5008158;28;20033;-76
2022/01/28 02:32:39;;;;;;;11.30;2.88;;;;;;;3.25;100.00;103012.75;5000543;28;20052;-75
2022/01/28 02:35:05;;;;;;;19.63;2.42;;;;;;;3.26;100.00;103010.97;5022006;28;20480;-73
2022/01/28 02:37:30;;;;;;;8.35;1.58;;;;;;;3.27;100.00;103020.69;5018777;28;20033;-74
2022/01/28 02:39:56;;;;;;;15.85;1.90;;;;;;;3.19;100.00;103036.72;5023109;28;20025;-75
2022/01/28 02:42:32;;;;;;;10.65;1.83;;;;;;;3.14;100.00;103017.31;5034478;28;20037;-74
2022/01/28 02:45:00;;;;;;;12.18;1.73;;;;;;;3.36;100.00;103031.22;5034171;28;20721;-75
2022/01/28 02:47:36;;;;;;;18.73;2.33;;;;;;;3.43;100.00;103034.66;5038251;28;20021;-75
2022/01/28 02:50:03;;;;;;;14.52;1.98;;;;;;;3.38;100.00;103049.78;5019569;28;20029;-75
2022/01/28 02:52:38;;;;;;;8.70;1.52;;;;;;;3.25;100.00;103046.38;5018689;28;20383;-75
2022/01/28 02:55:09;;;;;;;11.20;2.55;;;;;;;3.39;100.00;103043.56;5017736;28;20025;-74
2022/01/28 02:57:37;;;;;;;9.57;2.17;;;;;;;3.40;100.00;103040.91;5006023;28;20246;-75
2022/01/28 03:00:04;;;;;;;15.55;1.75;;;;;;;3.38;100.00;103045.34;5004556;28;20032;-74
2022/01/28 03:02:30;;;;;;;15.82;1.60;;;;;;;3.34;100.00;103059.56;5018714;28;20057;-74
2022/01/28 03:05:15;;;;;;;19.17;2.15;;;;;;;3.44;100.00;103062.97;5019203;28;20112;-74
2022/01/28 03:07:41;;;;;;;10.73;1.63;;;;;;;3.41;100.00;103047.97;5018502;28;20527;-75
2022/01/28 03:12:58;;;;;;;12.38;2.15;;;;;;;3.38;100.00;103069.25;5040190;28;20072;-75
2022/01/28 03:15:22;;;;;;;6.60;1.67;;;;;;;3.30;100.00;103068.44;5015570;28;20061;-76
2022/01/28 03:17:53;;;;;;;7.68;1.60;;;;;;;3.23;100.00;103042.88;5018764;28;20057;-75
2022/01/28 03:22:44;;;;;;;13.65;2.38;;;;;;;3.20;100.00;103046.44;5040509;28;20950;-75
2022/01/28 03:25:10;;;;;;;11.75;1.98;;;;;;;3.15;100.00;103050.91;5036175;28;20045;-74
2022/01/28 03:27:54;;;;;;;7.05;1.35;;;;;;;3.25;100.00;103065.88;5004810;28;20445;-74
2022/01/28 03:30:19;;;;;;;7.00;1.73;;;;;;;3.09;100.00;103058.94;5017444;28;20124;-75
2022/01/28 03:32:44;;;;;;;21.48;1.80;;;;;;;3.20;100.00;103042.88;5018736;28;20037;-74
2022/01/28 03:35:13;;;;;;;6.15;1.00;;;;;;;3.21;100.00;103052.63;5034285;28;20079;-75
2022/01/28 03:37:39;;;;;;;18.90;2.55;;;;;;;3.33;100.00;103056.91;5002343;28;20030;-73
2022/01/28 03:40:06;;;;;;;9.43;1.80;;;;;;;3.28;100.00;103067.59;5000748;28;20139;-75
2022/01/28 03:42:32;;;;;;;9.27;1.95;;;;;;;3.25;100.00;103071.16;5032867;28;20249;-75
2022/01/28 03:44:57;;;;;;;10.60;1.83;;;;;;;3.19;100.00;103057.97;5003795;28;20029;-74
2022/01/28 03:47:22;;;;;;;7.72;2.08;;;;;;;3.19;100.00;103057.97;5033665;28;20064;-75
2022/01/28 03:49:48;;;;;;;9.90;1.42;;;;;;;3.19;100.00;103067.69;5006579;28;20037;-75
2022/01/28 03:52:13;;;;;;;12.70;1.52;;;;;;;3.16;100.00;103068.59;5032175;28;20056;-75
2022/01/28 03:54:38;;;;;;;12.13;2.70;;;;;;;3.13;100.00;103073.94;5002285;28;20053;-75
2022/01/28 03:57:06;;;;;;;14.13;2.03;;;;;;;3.17;100.00;103074.81;5018148;28;20385;-75
2022/01/28 03:59:32;;;;;;;9.35;1.45;;;;;;;3.13;100.00;103071.28;5019004;28;20113;-75
2022/01/28 04:01:57;;;;;;;16.27;1.83;;;;;;;3.11;100.00;103073.97;5032966;28;20113;-75
2022/01/28 04:12:30;;;;;;;11.60;2.45;;;;;;;3.15;100.00;103093.38;5034498;28;20167;-76
2022/01/28 04:15:22;;;;;;;16.35;2.13;;;;;;;3.20;100.00;103098.66;5015176;28;20056;-74
2022/01/28 04:17:48;;;;;;;8.90;1.63;;;;;;;3.17;100.00;103096.91;5018110;28;20028;-74
2022/01/28 04:20:14;;;;;;;10.85;1.75;;;;;;;3.12;100.00;103093.41;4998703;28;20056;-74
2022/01/28 04:22:39;;;;;;;11.07;1.17;;;;;;;3.09;100.00;103093.44;5023404;28;20045;-75
2022/01/28 04:25:04;;;;;;;13.10;1.67;;;;;;;3.03;100.00;103091.75;5001669;28;20030;-74
2022/01/28 04:27:30;;;;;;;16.30;2.53;;;;;;;3.07;100.00;103097.88;5021491;28;20143;-75
2022/01/28 04:29:55;;;;;;;13.50;2.30;;;;;;;2.99;100.00;103100.63;5003511;28;20136;-75
2022/01/28 04:32:22;;;;;;;10.55;1.63;;;;;;;3.00;100.00;103102.38;5002707;28;20156;-74
2022/01/28 04:34:47;;;;;;;10.30;1.58;;;;;;;3.06;100.00;103110.28;5021151;28;20825;-74
2022/01/28 04:37:21;;;;;;;8.80;1.70;;;;;;;3.03;100.00;103122.72;5039446;28;20029;-75
2022/01/28 04:42:21;;;;;;;8.75;1.40;;;;;;;2.91;100.00;103126.38;5022351;28;20374;-75
2022/01/28 04:44:58;;;;;;;9.52;1.90;;;;;;;2.97;100.00;103118.34;5008074;28;20113;-74
2022/01/28 04:50:18;;;;;;;10.20;2.20;;;;;;;2.95;100.00;103122.78;5024169;28;20038;-75
2022/01/28 04:53:13;;;;;;;13.07;2.78;;;;;;;2.84;100.00;103115.81;5022872;28;20029;-75
2022/01/28 05:14:36;;;;;;;12.00;2.30;;;;;;;3.12;100.00;103139.44;5037169;28;20052;-74
2022/01/28 05:23:24;;;;;;;11.75;1.83;;;;;;;3.07;100.00;103153.63;5019867;28;20072;-73
2022/01/28 05:25:42;;;;;;;11.20;1.65;;;;;;;3.09;100.00;103158.06;5008261;28;20124;-74
2022/01/28 05:27:55;;;;;;;12.82;1.50;;;;;;;3.13;100.00;103158.88;5022929;28;20102;-73
2022/01/28 05:30:20;;;;;;;11.27;1.48;;;;;;;3.02;100.00;103171.41;5019367;28;21532;-75
2022/01/28 05:32:45;;;;;;;8.02;1.73;;;;;;;2.91;100.00;103163.53;5035447;28;20030;-73
2022/01/28 05:35:11;;;;;;;9.15;1.50;;;;;;;2.89;100.00;103176.78;5001406;28;20489;-75
2022/01/28 05:37:36;;;;;;;10.50;1.80;;;;;;;2.87;100.00;103172.41;5007894;28;20118;-74
2022/01/28 05:40:02;;;;;;;10.57;2.03;;;;;;;2.89;100.00;103190.06;5020140;28;20066;-74
2022/01/28 05:42:27;;;;;;;11.88;1.70;;;;;;;2.84;100.00;103186.56;5032084;28;20047;-74
2022/01/28 05:44:52;;;;;;;8.55;1.02;;;;;;;2.74;100.00;103188.41;5038005;28;20031;-75
2022/01/28 05:47:18;;;;;;;9.85;1.50;;;;;;;2.82;100.00;103204.25;5019275;28;20033;-74
2022/01/28 05:49:44;;;;;;;15.90;1.98;;;;;;;2.76;100.00;103199.00;5018293;28;21842;-77
2022/01/28 05:52:09;;;;;;;12.13;1.65;;;;;;;2.81;100.00;103206.03;5021467;28;20033;-74
2022/01/28 05:54:35;;;;;;;14.20;2.35;;;;;;;2.74;100.00;103200.78;5022686;28;20044;-75
2022/01/28 05:57:00;;;;;;;10.27;1.92;;;;;;;2.78;100.00;103216.69;5020691;28;20166;-76
2022/01/28 05:59:26;;;;;;;8.02;1.60;;;;;;;2.70;100.00;103211.44;5005752;28;20756;-73
2022/01/28 06:01:51;;;;;;;12.57;1.98;;;;;;;2.68;100.00;103221.16;5020737;28;20068;-72
2022/01/28 06:04:16;;;;;;;4.97;1.58;;;;;;;2.68;100.00;103225.56;5006047;28;20076;-72
2022/01/28 06:06:42;;;;;;;15.55;1.88;;;;;;;2.64;100.00;103227.38;5023735;28;21658;-74
2022/01/28 06:09:08;;;;;;;12.35;1.50;;;;;;;2.57;100.00;103217.69;5009384;28;20032;-74
2022/01/28 06:11:33;;;;;;;7.07;1.73;;;;;;;2.52;100.00;103215.06;5018830;28;20037;-73
2022/01/28 06:13:58;;;;;;;14.57;1.50;;;;;;;2.50;100.00;103227.44;5016628;28;20071;-74
2022/01/28 06:16:23;;;;;;;14.90;1.73;;;;;;;2.46;100.00;103238.97;5017600;28;20436;-75
2022/01/28 06:18:49;;;;;;;6.93;1.75;;;;;;;2.38;100.00;103225.75;5021753;28;20029;-74
2022/01/28 06:21:16;;;;;;;5.40;1.60;;;;;;;2.43;100.00;103257.53;5004490;28;20115;-74
2022/01/28 06:23:41;;;;;;;16.08;2.17;;;;;;;2.44;100.00;103255.78;5040018;28;20033;-74
2022/01/28 06:26:06;;;;;;;5.97;1.67;;;;;;;2.33;100.00;103246.09;5003061;28;20030;-74
2022/01/28 06:28:32;;;;;;;12.45;2.17;;;;;;;2.34;100.00;103254.94;5022723;28;20025;-74
2022/01/28 06:30:57;;;;;;;8.38;1.75;;;;;;;2.35;100.00;103265.53;5020221;28;20033;-74
2022/01/28 06:33:22;;;;;;;12.07;2.47;;;;;;;2.26;100.00;103260.25;4999958;28;20152;-74
2022/01/28 06:35:48;;;;;;;9.35;2.05;;;;;;;2.23;100.00;103265.59;5006009;28;20052;-74
2022/01/28 06:38:14;;;;;;;13.40;1.70;;;;;;;2.33;100.00;103282.34;5021451;28;20069;-74
2022/01/28 06:40:39;;;;;;;11.02;2.63;;;;;;;2.23;100.00;103277.06;5004196;28;20025;-73
2022/01/28 06:43:08;;;;;;;10.55;1.75;;;;;;;2.10;100.00;103280.66;5001259;28;20041;-74
2022/01/28 06:45:34;;;;;;;12.85;2.08;;;;;;;2.01;100.00;103272.72;5018452;28;20028;-74
2022/01/28 06:47:59;;;;;;;6.35;2.22;;;;;;;2.00;100.00;103276.25;5001626;28;20061;-74
2022/01/28 06:50:24;;;;;;;10.88;2.67;;;;;;;2.02;100.00;103291.25;5017963;28;20029;-74
2022/01/28 06:52:50;;;;;;;9.52;2.00;;;;;;;1.97;100.00;103297.47;5003032;28;20450;-74
2022/01/28 06:55:16;;;;;;;6.85;2.00;;;;;;;2.00;100.00;103314.22;5021025;28;20064;-73
2022/01/28 06:57:41;;;;;;;6.13;1.60;;;;;;;1.93;100.00;103300.13;5018723;28;20152;-74
2022/01/28 07:00:08;;;;;;;7.82;3.72;;;;;;;1.96;100.00;103309.84;5016737;28;20037;-73
2022/01/28 07:02:34;;;;;;;9.60;2.72;;;;;;;1.84;100.00;103293.94;5020905;28;20029;-74
2022/01/28 07:04:59;;;;;;;13.20;2.92;;;;;;;1.85;100.00;103319.56;5010413;28;20116;-75
2022/01/28 07:07:25;;;;;;;8.30;2.53;;;;;;;1.83;100.00;103326.63;5001622;28;20533;-74
2022/01/28 07:09:51;;;;;;;27.00;9.35;;;;;;;1.79;100.00;103333.72;5002461;28;20036;-75
2022/01/28 07:12:17;;;;;;;18.00;9.70;;;;;;;1.78;100.00;103330.16;5000548;28;20034;-74
2022/01/28 07:14:42;;;;;;;67.80;34.40;;;;;;;1.85;100.00;103346.06;5022197;28;20390;-73
2022/01/28 07:17:08;;;;;;;14.52;7.70;;;;;;;1.80;100.00;103346.94;5014991;28;20029;-73
2022/01/28 07:19:33;;;;;;;28.63;13.13;;;;;;;1.74;100.00;103338.97;4996141;28;20025;-74
2022/01/28 07:21:58;;;;;;;27.17;11.07;;;;;;;1.71;100.00;103330.16;5034293;28;20459;-73
2022/01/28 07:24:24;;;;;;;47.35;19.88;;;;;;;1.71;100.00;103328.41;5024132;28;20581;-74
2022/01/28 07:26:49;;;;;;;20.67;8.40;;;;;;;1.77;100.00;103338.97;5024381;28;20021;-74
2022/01/28 07:29:15;;;;;;;17.65;6.70;;;;;;;1.76;100.00;103331.91;5019759;28;20029;-74
2022/01/28 07:31:41;;;;;;;13.68;3.67;;;;;;;1.84;100.00;103347.84;4999942;28;20021;-73
2022/01/28 07:34:06;;;;;;;20.30;5.38;;;;;;;1.85;100.00;103351.34;5034268;28;20064;-74
2022/01/28 07:36:33;;;;;;;12.50;4.43;;;;;;;1.80;100.00;103344.28;5003548;28;20039;-74
2022/01/28 07:38:58;;;;;;;8.20;2.65;;;;;;;1.88;100.00;103352.22;5009359;28;20452;-74
2022/01/28 07:41:24;;;;;;;11.13;3.13;;;;;;;1.79;100.00;103353.13;5003834;28;20037;-74
2022/01/28 07:43:49;;;;;;;11.15;3.25;;;;;;;1.87;100.00;103357.53;5017209;28;20057;-73
2022/01/28 07:46:15;;;;;;;12.10;2.13;;;;;;;1.85;100.00;103364.59;5008807;28;20048;-74
2022/01/28 07:48:40;;;;;;;8.07;2.35;;;;;;;1.88;100.00;103368.13;5033924;28;20427;-73
2022/01/28 07:51:05;;;;;;;6.47;1.60;;;;;;;1.92;100.00;103369.03;5026134;28;20064;-73
2022/01/28 07:53:31;;;;;;;16.52;3.05;;;;;;;2.07;100.00;103376.94;4999615;28;20035;-73
2022/01/28 07:55:56;;;;;;;17.58;3.10;;;;;;;2.19;100.00;103367.22;5019166;28;20386;-73
2022/01/28 07:58:22;;;;;;;15.02;2.78;;;;;;;2.32;100.00;103387.50;5016370;28;20124;-72
2022/01/28 08:00:47;;;;;;;18.70;3.42;;;;;;;2.31;100.00;103366.31;5020846;28;20035;-74
2022/01/28 08:03:13;;;;;;;12.82;2.75;;;;;;;2.48;100.00;103382.19;5001647;28;20066;-74
2022/01/28 08:05:38;;;;;;;13.82;3.85;;;;;;;2.66;100.00;103390.06;5021932;28;20067;-73
2022/01/28 08:08:05;;;;;;;12.05;2.22;;;;;;;2.81;100.00;103402.41;5032899;28;20063;-74
2022/01/28 08:10:32;;;;;;;11.38;3.13;;;;;;;2.80;100.00;103390.00;5021877;28;20053;-74
2022/01/28 08:13:00;;;;;;;12.07;2.42;;;;;;;2.84;100.00;103383.81;5021306;28;20434;-74
2022/01/28 08:15:26;;;;;;;14.23;2.63;;;;;;;2.88;100.00;103389.97;5026888;28;20040;-74
2022/01/28 08:17:51;;;;;;;15.75;2.80;;;;;;;2.95;100.00;103397.03;5039654;28;20029;-73
2022/01/28 08:20:16;;;;;;;6.80;1.60;;;;;;;3.06;100.00;103412.91;5021208;28;21155;-71
2022/01/28 08:22:52;;;;;;;8.85;2.28;;;;;;;3.13;100.00;103413.75;5020354;28;20037;-72
2022/01/28 08:25:19;;;;;;;10.55;2.00;;;;;;;3.11;100.00;103403.16;5021655;28;20117;-72
2022/01/28 08:27:45;;;;;;;8.82;1.77;;;;;;;3.15;100.00;103393.38;5022958;28;20180;-72
2022/01/28 08:30:13;;;;;;;14.45;2.10;;;;;;;3.36;100.00;103416.28;5004084;28;20497;-72
2022/01/28 08:32:39;;;;;;;12.50;2.50;;;;;;;3.37;100.00;103411.84;5021417;28;20080;-72
2022/01/28 08:35:05;;;;;;;8.30;2.13;;;;;;;3.37;100.00;103395.91;5007159;28;20033;-72
2022/01/28 08:37:31;;;;;;;10.80;1.95;;;;;;;3.42;100.00;103394.09;5036865;28;20049;-73
2022/01/28 08:39:56;;;;;;;6.20;2.58;;;;;;;3.38;100.00;103411.84;5004782;28;20447;-73
2022/01/28 08:42:21;;;;;;;8.93;2.03;;;;;;;3.31;100.00;103410.13;5027804;28;20411;-72
2022/01/28 08:44:47;;;;;;;11.70;2.67;;;;;;;3.14;100.00;103407.53;5036923;28;20431;-72
2022/01/28 08:47:12;;;;;;;10.50;2.15;;;;;;;3.48;100.00;103425.94;5020569;28;20040;-73
2022/01/28 08:49:37;;;;;;;8.48;2.05;;;;;;;3.81;100.00;103413.31;5006261;28;20052;-74
2022/01/28 08:52:03;;;;;;;9.20;2.47;;;;;;;4.19;100.00;103416.53;5021173;28;20056;-73
2022/01/28 08:54:28;;;;;;;7.00;1.58;;;;;;;4.43;98.70;103417.19;5002486;28;20076;-73
2022/01/28 08:56:54;;;;;;;9.00;2.63;;;;;;;4.94;98.90;103427.22;5019762;28;20030;-74
2022/01/28 08:59:19;;;;;;;11.35;2.50;;;;;;;5.35;95.25;103424.91;5021090;28;20484;-74
2022/01/28 09:01:44;;;;;;;10.88;1.80;;;;;;;5.60;93.76;103409.47;5004896;28;20528;-73
2022/01/28 09:04:10;;;;;;;6.88;1.50;;;;;;;5.73;94.36;103410.16;5005260;28;20045;-73
2022/01/28 09:06:35;;;;;;;9.15;2.13;;;;;;;5.88;93.12;103414.34;5022509;28;20057;-74
2022/01/28 09:09:01;;;;;;;11.60;2.28;;;;;;;5.98;90.34;103407.94;5007119;28;20225;-74
2022/01/28 09:13:52;;;;;;;15.60;5.63;;;;;;;5.95;89.56;103424.00;5023020;28;20486;-73
2022/01/28 09:16:20;;;;;;;12.68;3.13;;;;;;;5.96;90.48;103423.06;5005596;28;20037;-74
2022/01/28 09:18:46;;;;;;;12.35;3.00;;;;;;;5.67;89.48;103415.56;5018821;28;20029;-74
2022/01/28 09:21:11;;;;;;;9.38;2.20;;;;;;;5.64;90.73;103429.84;5017906;28;20063;-74
2022/01/28 09:23:36;;;;;;;9.95;1.98;;;;;;;5.82;91.29;103433.09;5030201;28;20032;-73
2022/01/28 09:26:02;;;;;;;9.25;2.88;;;;;;;5.92;89.88;103425.84;5036481;28;20030;-73
2022/01/28 09:28:27;;;;;;;13.85;3.80;;;;;;;6.25;90.54;103418.19;5022951;28;20052;-73
2022/01/28 09:30:53;;;;;;;7.35;2.05;;;;;;;6.47;88.17;103425.78;5020824;28;20033;-73
2022/01/28 09:33:18;;;;;;;7.68;2.10;;;;;;;6.93;87.71;103432.88;5020268;28;20031;-73
2022/01/28 09:35:44;;;;;;;11.05;2.47;;;;;;;7.11;86.32;103420.06;5036501;28;20197;-73
2022/01/28 09:38:10;;;;;;;10.77;2.10;;;;;;;7.35;84.92;103435.56;5033039;28;20490;-73
2022/01/28 09:40:36;;;;;;;7.07;1.42;;;;;;;7.61;84.25;103447.44;5020276;28;20025;-73
2022/01/28 09:43:04;;;;;;;14.05;2.10;;;;;;;7.68;82.02;103444.63;5022857;28;20032;-74
2022/01/28 09:45:29;;;;;;;9.85;2.05;;;;;;;8.04;82.21;103447.28;5020631;28;20030;-73
2022/01/28 09:47:56;;;;;;;6.05;1.95;;;;;;;8.07;80.87;103448.13;5007980;28;20439;-73
2022/01/28 09:50:24;;;;;;;14.95;2.58;;;;;;;7.79;79.13;103462.16;5022028;28;20424;-72
2022/01/28 09:52:51;;;;;;;11.95;2.17;;;;;;;8.46;79.11;103463.16;5021509;28;20025;-73
2022/01/28 09:55:17;;;;;;;12.70;3.28;;;;;;;9.09;77.51;103473.94;5021367;28;20653;-73
2022/01/28 09:57:43;;;;;;;12.52;2.22;;;;;;;9.38;74.58;103466.81;5018897;28;20045;-73
2022/01/28 10:00:10;;;;;;;9.30;2.00;;;;;;;9.54;72.93;103472.59;5039559;28;20081;-72
2022/01/28 10:02:53;;;;;;;10.10;1.92;;;;;;;9.68;72.06;103469.47;5018210;28;20128;-72
2022/01/28 10:05:25;;;;;;;10.23;2.47;;;;;;;9.86;72.44;103481.41;5024601;28;20378;-72
2022/01/28 10:08:22;;;;;;;11.85;2.35;;;;;;;9.35;74.06;103480.31;5018132;28;20278;-72
2022/01/28 10:11:10;;;;;;;12.77;2.72;;;;;;;8.94;75.29;103467.22;5015314;28;20029;-73
2022/01/28 10:13:48;;;;;;;14.80;3.55;;;;;;;9.39;74.18;103484.66;5037093;28;20584;-72
2022/01/28 10:16:16;;;;;;;12.70;2.58;;;;;;;9.18;73.97;103478.13;5020932;28;20032;-73
2022/01/28 10:18:55;;;;;;;8.90;2.45;;;;;;;10.17;72.34;103482.19;5024247;28;20021;-72
2022/01/28 10:21:38;;;;;;;11.98;2.40;;;;;;;9.07;73.87;103485.63;5020003;28;20036;-72
2022/01/28 10:24:24;;;;;;;10.05;2.15;;;;;;;8.78;75.52;103480.16;5037131;28;20045;-72
2022/01/28 10:26:55;;;;;;;9.18;2.10;;;;;;;9.34;74.50;103485.72;5015758;28;20032;-72
2022/01/28 10:29:24;;;;;;;16.80;2.70;;;;;;;10.12;72.54;103489.50;5022838;28;20125;-69
2022/01/28 10:31:55;;;;;;;8.13;2.80;;;;;;;10.98;69.36;103482.97;5017344;28;20504;-72
2022/01/28 10:35:00;;;;;;;10.05;2.30;;;;;;;11.47;67.32;103473.94;5017454;28;20026;-73
2022/01/28 10:37:29;;;;;;;14.20;2.88;;;;;;;11.11;65.90;103475.31;4992437;28;20185;-72
2022/01/28 10:40:00;;;;;;;17.05;3.28;;;;;;;11.25;69.16;103480.16;4996219;28;20033;-73
2022/01/28 10:42:25;;;;;;;9.55;2.50;;;;;;;11.08;67.77;103486.19;5005565;28;20518;-73
2022/01/28 10:44:58;;;;;;;11.90;2.77;;;;;;;12.21;65.66;103483.50;5020736;28;20278;-73
2022/01/28 10:47:49;;;;;;;10.82;2.25;;;;;;;12.55;64.06;103482.94;5036322;28;20271;-73
2022/01/28 10:50:36;;;;;;;16.88;4.07;;;;;;;12.67;60.78;103483.31;5019507;28;20043;-73
2022/01/28 10:53:10;;;;;;;8.52;3.10;;;;;;;12.44;60.80;103471.75;5034670;28;20080;-75
2022/01/28 10:55:57;;;;;;;13.25;4.25;;;;;;;13.12;57.51;103478.59;5031725;28;20036;-74
2022/01/28 10:58:25;;;;;;;26.05;17.52;;;;;;;13.42;56.71;103462.78;5016677;28;20026;-73
2022/01/28 11:00:57;;;;;;;23.77;16.92;;;;;;;12.62;58.40;103459.28;5023485;28;20048;-72
2022/01/28 11:03:26;;;;;;;22.52;17.52;;;;;;;11.93;59.79;103466.66;5013819;28;20056;-73
2022/01/28 11:05:52;;;;;;;12.55;5.93;;;;;;;11.87;60.59;103457.97;5022781;28;20025;-69
2022/01/28 11:08:17;;;;;;;12.57;4.70;;;;;;;11.41;62.09;103456.19;5017066;28;20675;-72
2022/01/28 11:10:43;;;;;;;13.05;2.88;;;;;;;10.68;65.31;103461.66;5018951;28;20029;-72
2022/01/28 11:13:09;;;;;;;6.60;1.70;;;;;;;10.07;67.51;103462.84;5014565;28;20033;-73
2022/01/28 11:15:35;;;;;;;8.80;1.50;;;;;;;10.61;66.38;103457.44;5018031;28;20040;-72
2022/01/28 11:18:02;;;;;;;9.57;1.63;;;;;;;10.14;67.79;103433.97;5019627;28;20513;-72
2022/01/28 11:20:35;;;;;;;6.55;1.50;;;;;;;9.88;68.04;103444.66;5022201;28;20339;-72
2022/01/28 11:23:03;;;;;;;11.20;1.88;;;;;;;10.26;67.64;103443.41;5018204;28;20603;-72
2022/01/28 11:25:36;;;;;;;8.02;1.92;;;;;;;11.75;62.52;103424.38;5019942;28;20104;-72
2022/01/28 11:28:10;;;;;;;9.50;2.90;;;;;;;12.79;59.52;103418.09;5004413;28;20040;-72
2022/01/28 11:30:36;;;;;;;;;;;;;;;14.16;56.15;103424.97;5016824;28;20281;-75
2022/01/28 11:33:07;;;;;;;12.43;1.85;;;;;;;14.89;53.62;103408.50;5036607;28;19917;-72
2022/01/28 11:36:03;;;;;;;13.02;2.10;;;;;;;15.78;50.76;103400.75;5017018;28;20061;-71
2022/01/28 11:38:29;;;;;;;8.60;1.73;;;;;;;16.27;51.53;103413.22;5012788;28;20037;-72
2022/01/28 11:40:58;;;;;;;11.10;1.73;;;;;;;16.54;46.95;103413.31;5018060;28;20865;-72
2022/01/28 11:43:25;;;;;;;8.40;2.08;;;;;;;17.00;49.98;103401.44;5036864;28;20456;-71
2022/01/28 11:46:11;;;;;;;11.43;2.05;;;;;;;16.34;45.03;103407.31;5018490;28;20021;-73
2022/01/28 11:48:51;;;;;;;7.07;2.78;;;;;;;16.77;45.55;103413.72;5025171;28;20037;-73
2022/01/28 11:51:17;;;;;;;12.35;2.10;;;;;;;17.54;45.66;103405.16;5022386;28;20029;-72
2022/01/28 11:53:55;;;;;;;11.85;1.98;;;;;;;17.82;45.06;103381.56;5019310;28;20029;-71
2022/01/28 11:56:21;;;;;;;6.50;2.17;;;;;;;17.94;42.67;103391.56;5018390;28;20034;-74
2022/01/28 11:58:54;;;;;;;10.55;2.03;;;;;;;17.50;42.86;103387.31;5023654;28;20026;-71
2022/01/28 12:01:24;;;;;;;11.48;2.05;;;;;;;17.16;43.29;103398.59;5036408;28;20120;-71
2022/01/28 12:03:50;;;;;;;49.97;24.90;;;;;;;17.28;44.24;103396.91;5019995;28;20064;-72
2022/01/28 12:06:17;;;;;;;29.10;14.73;;;;;;;15.10;47.21;103390.16;5024379;28;20030;-72
2022/01/28 12:08:43;;;;;;;27.73;16.95;;;;;;;14.57;50.73;103402.13;5025912;28;20029;-69
2022/01/28 12:11:10;;;;;;;12.48;2.20;;;;;;;14.67;50.83;103412.34;5037559;28;20143;-69
2022/01/28 12:14:03;;;;;;;7.20;2.10;;;;;;;16.56;46.51;103395.13;5018553;28;20497;-70
2022/01/28 12:16:30;;;;;;;11.00;1.85;;;;;;;16.61;46.16;103394.81;5021895;28;20784;-71
2022/01/28 12:18:57;;;;;;;30.52;10.45;;;;;;;17.36;44.04;103404.53;5018025;28;20032;-72
2022/01/28 12:21:25;;;;;;;8.90;2.10;;;;;;;17.39;42.96;103386.19;5019576;28;20444;-70
2022/01/28 12:23:53;;;;;;;8.02;2.38;;;;;;;16.49;45.29;103378.38;5021881;28;20463;-70
2022/01/28 12:26:19;;;;;;;30.55;10.82;;;;;;;15.84;46.79;103352.50;5023400;28;20540;-71
2022/01/28 12:28:49;;;;;;;16.08;4.57;;;;;;;15.36;47.79;103355.31;5018953;28;20040;-71
2022/01/28 12:31:29;;;;;;;18.83;7.78;;;;;;;15.74;48.49;103363.00;5023057;28;20399;-70
2022/01/28 12:33:58;;;;;;;158.50;58.05;;;;;;;15.73;47.57;103350.44;5021544;28;20452;-71
2022/01/28 12:36:30;;;;;;;27.75;8.75;;;;;;;15.96;47.11;103347.34;5020001;28;20076;-71
2022/01/28 12:41:40;;;;;;;46.88;24.60;;;;;;;17.20;44.66;103331.38;5038465;28;20045;-71
2022/01/28 12:44:06;;;;;;;13.95;7.18;;;;;;;16.46;46.51;103340.59;5023773;28;20127;-71
2022/01/28 12:46:31;;;;;;;8.63;1.80;;;;;;;17.14;44.86;103332.66;5036797;28;20629;-70
2022/01/28 12:48:59;;;;;;;11.10;1.98;;;;;;;16.61;43.58;103346.88;5023749;28;20525;-70
2022/01/28 12:51:24;;;;;;;6.65;2.38;;;;;;;16.72;44.40;103324.50;5020762;28;20029;-72